Date,TemperatureHighF,TemperatureAvgF,TemperatureLowF,DewpointHighF,DewpointAvgF,DewpointLowF,HumidityHigh,HumidityAvg,HumidityLow,PressureMaxIn,PressureMinIn,WindSpeedMaxMPH,WindSpeedAvgMPH,GustSpeedMaxMPH,PrecipitationSumIn
2013-1-1,36,29,24,-100,-100,-100,0,0,100,30.07,29.94,25,15,29,0.00
2013-1-2,27,24,23,-100,-100,-100,0,0,100,30.19,30.03,23,16,31,0.00
2013-1-3,32,25,19,-100,-100,-100,0,0,100,30.19,30.04,32,19,43,0.00
2013-1-4,34,31,28,-100,-100,-100,0,0,100,30.15,30.00,31,24,43,0.00
2013-1-5,35,31,28,-100,-100,-100,0,0,100,30.32,30.07,21,14,26,0.00
2013-1-6,37,35,34,-100,-100,-100,0,0,100,30.16,29.93,25,17,29,0.00
2013-1-7,36,33,30,-100,-100,-100,0,0,100,30.41,30.16,29,14,36,0.00
2013-1-8,40,34,28,-100,-100,-100,0,0,100,30.29,30.19,23,13,30,0.00
2013-1-9,45,41,37,-100,-100,-100,0,0,100,30.44,30.09,31,22,40,0.00
2013-1-10,38,35,31,-100,-100,-100,0,0,100,30.59,30.28,13,8,17,0.00
2013-1-11,52,48,38,-100,-100,-100,0,0,100,30.28,29.81,30,19,38,0.00
2013-1-12,60,55,48,-100,-100,-100,0,0,100,29.99,29.90,22,15,29,0.00
2013-1-13,65,37,38,-100,-100,-100,0,0,100,29.93,29.72,26,13,34,0.00
2013-1-14,38,32,29,-100,-100,-100,0,0,100,30.43,29.93,25,15,30,0.00
2013-1-15,29,28,27,-100,-100,-100,0,0,100,30.41,30.16,13,7,16,0.00
2013-1-16,36,33,29,-100,-100,-100,0,0,100,30.12,29.84,34,11,30,0.00
2013-1-17,36,33,25,-100,-100,-100,0,0,100,30.18,29.92,34,17,41,0.00
2013-1-18,35,26,20,-100,-100,-100,0,0,100,30.45,29.99,36,22,46,0.00
2013-1-19,51,44,35,-100,-100,-100,0,0,100,30.05,29.67,32,23,44,0.00
2013-1-20,49,30,22,-100,-100,-100,0,0,100,30.11,29.60,47,31,59,0.00
2013-1-21,23,20,16,-100,-100,-100,0,0,100,30.10,29.89,37,20,41,0.00
2013-1-22,15,12,8,-100,-100,-100,0,0,100,30.20,29.91,44,34,58,0.00
2013-1-23,15,13,12,-100,-100,-100,0,0,100,0.00,40.00,33,20,38,0.00
2013-1-24,20,17,12,-100,-100,-100,0,0,100,0.00,40.00,28,17,33,0.00
2013-1-25,18,15,12,-100,-100,-100,0,0,100,0.00,40.00,13,8,15,0.00
2013-1-26,25,22,16,-100,-100,-100,0,0,100,0.00,40.00,15,9,20,0.00
2013-1-27,31,26,20,-100,-100,-100,0,0,100,0.00,40.00,13,7,16,0.00
2013-1-28,46,38,27,-100,-100,-100,0,0,100,0.00,40.00,29,18,41,0.00
2013-1-29,62,48,35,-100,-100,-100,0,0,100,0.00,40.00,31,14,41,0.00
2013-1-30,63,56,54,-100,-100,-100,0,0,100,0.00,40.00,37,24,43,0.00
2013-1-31,29,22,22,-100,-100,-100,0,0,100,0.00,40.00,45,36,50,0.00